sensor_id;sensor_type;location;lat;lon;timestamp;temperature;humidity
51579;DHT22;47998;53.242;6.386;2022-10-31T00:00:03;10.70;99.90
51579;DHT22;47998;53.242;6.386;2022-10-31T00:02:28;10.60;99.90
51579;DHT22;47998;53.242;6.386;2022-10-31T00:04:54;10.50;99.90
51579;DHT22;47998;53.242;6.386;2022-10-31T00:07:20;10.50;99.90
51579;DHT22;47998;53.242;6.386;2022-10-31T00:09:45;10.30;99.90
51579;DHT22;47998;53.242;6.386;2022-10-31T00:12:11;10.40;99.90
51579;DHT22;47998;53.242;6.386;2022-10-31T00:14:37;10.40;99.90
51579;DHT22;47998;53.242;6.386;2022-10-31T00:17:02;10.30;99.90
51579;DHT22;47998;53.242;6.386;2022-10-31T00:19:28;10.30;99.90
51579;DHT22;47998;53.242;6.386;2022-10-31T00:21:54;10.30;99.90
51579;DHT22;47998;53.242;6.386;2022-10-31T00:24:19;10.30;99.90
51579;DHT22;47998;53.242;6.386;2022-10-31T00:26:45;10.40;99.90
51579;DHT22;47998;53.242;6.386;2022-10-31T00:29:11;10.30;99.90
51579;DHT22;47998;53.242;6.386;2022-10-31T00:31:38;10.30;99.90
51579;DHT22;47998;53.242;6.386;2022-10-31T00:34:03;10.20;99.90
51579;DHT22;47998;53.242;6.386;2022-10-31T00:36:30;10.20;99.90
51579;DHT22;47998;53.242;6.386;2022-10-31T00:38:55;10.20;99.90
51579;DHT22;47998;53.242;6.386;2022-10-31T00:41:23;10.10;99.90
51579;DHT22;47998;53.242;6.386;2022-10-31T00:43:49;10.20;99.90
51579;DHT22;47998;53.242;6.386;2022-10-31T00:46:14;10.00;99.90
51579;DHT22;47998;53.242;6.386;2022-10-31T00:48:41;10.00;99.90
51579;DHT22;47998;53.242;6.386;2022-10-31T00:51:07;10.00;99.90
51579;DHT22;47998;53.242;6.386;2022-10-31T00:53:33;10.00;99.90
51579;DHT22;47998;53.242;6.386;2022-10-31T00:55:59;10.00;99.90
51579;DHT22;47998;53.242;6.386;2022-10-31T00:58:25;10.00;99.90
51579;DHT22;47998;53.242;6.386;2022-10-31T01:00:50;10.00;99.90
51579;DHT22;47998;53.242;6.386;2022-10-31T01:03:22;10.00;99.90
51579;DHT22;47998;53.242;6.386;2022-10-31T01:06:09;10.00;99.90
51579;DHT22;47998;53.242;6.386;2022-10-31T01:08:37;10.10;99.90
51579;DHT22;47998;53.242;6.386;2022-10-31T01:13:28;10.10;99.90
51579;DHT22;47998;53.242;6.386;2022-10-31T01:15:56;10.10;99.90
51579;DHT22;47998;53.242;6.386;2022-10-31T01:18:22;9.90;99.90
51579;DHT22;47998;53.242;6.386;2022-10-31T01:20:57;9.90;99.90
51579;DHT22;47998;53.242;6.386;2022-10-31T01:23:22;9.90;99.90
51579;DHT22;47998;53.242;6.386;2022-10-31T01:25:48;9.90;99.90
51579;DHT22;47998;53.242;6.386;2022-10-31T01:28:15;10.00;99.90
51579;DHT22;47998;53.242;6.386;2022-10-31T01:30:41;10.00;99.90
51579;DHT22;47998;53.242;6.386;2022-10-31T01:33:07;10.00;99.90
51579;DHT22;47998;53.242;6.386;2022-10-31T01:35:32;10.10;99.90
51579;DHT22;47998;53.242;6.386;2022-10-31T01:37:58;10.10;99.90
51579;DHT22;47998;53.242;6.386;2022-10-31T01:40:23;10.20;99.90
51579;DHT22;47998;53.242;6.386;2022-10-31T01:42:49;10.10;99.90
51579;DHT22;47998;53.242;6.386;2022-10-31T01:45:15;10.00;99.90
51579;DHT22;47998;53.242;6.386;2022-10-31T01:47:45;10.00;99.90
51579;DHT22;47998;53.242;6.386;2022-10-31T01:50:31;10.00;99.90
51579;DHT22;47998;53.242;6.386;2022-10-31T01:52:59;10.10;99.90
51579;DHT22;47998;53.242;6.386;2022-10-31T01:55:32;10.10;99.90
51579;DHT22;47998;53.242;6.386;2022-10-31T01:58:04;10.10;99.90
51579;DHT22;47998;53.242;6.386;2022-10-31T02:00:32;10.20;99.90
51579;DHT22;47998;53.242;6.386;2022-10-31T02:02:58;10.00;99.90
51579;DHT22;47998;53.242;6.386;2022-10-31T02:05:27;10.00;99.90
51579;DHT22;47998;53.242;6.386;2022-10-31T02:08:16;10.10;99.90
51579;DHT22;47998;53.242;6.386;2022-10-31T02:10:44;9.90;99.90
51579;DHT22;47998;53.242;6.386;2022-10-31T02:13:11;10.00;99.90
51579;DHT22;47998;53.242;6.386;2022-10-31T02:15:39;9.90;99.90
51579;DHT22;47998;53.242;6.386;2022-10-31T02:18:06;9.90;99.90
51579;DHT22;47998;53.242;6.386;2022-10-31T02:23:32;9.90;99.90
51579;DHT22;47998;53.242;6.386;2022-10-31T02:34:35;9.80;99.90
51579;DHT22;47998;53.242;6.386;2022-10-31T02:37:09;9.80;99.90
51579;DHT22;47998;53.242;6.386;2022-10-31T02:39:39;9.80;99.90
51579;DHT22;47998;53.242;6.386;2022-10-31T02:42:33;9.80;99.90
51579;DHT22;47998;53.242;6.386;2022-10-31T02:45:14;9.70;99.90
51579;DHT22;47998;53.242;6.386;2022-10-31T02:47:44;9.70;99.90
51579;DHT22;47998;53.242;6.386;2022-10-31T02:50:18;9.70;99.90
51579;DHT22;47998;53.242;6.386;2022-10-31T02:52:49;9.60;99.90
51579;DHT22;47998;53.242;6.386;2022-10-31T02:58:05;9.50;99.90
51579;DHT22;47998;53.242;6.386;2022-10-31T03:03:50;9.50;99.90
51579;DHT22;47998;53.242;6.386;2022-10-31T03:09:23;9.40;99.90
51579;DHT22;47998;53.242;6.386;2022-10-31T03:12:00;9.40;99.90
51579;DHT22;47998;53.242;6.386;2022-10-31T03:14:34;9.40;99.90
51579;DHT22;47998;53.242;6.386;2022-10-31T03:17:05;9.50;99.90
51579;DHT22;47998;53.242;6.386;2022-10-31T03:19:43;9.40;99.90
51579;DHT22;47998;53.242;6.386;2022-10-31T03:24:40;9.40;99.90
51579;DHT22;47998;53.242;6.386;2022-10-31T03:27:11;9.50;99.90
51579;DHT22;47998;53.242;6.386;2022-10-31T03:29:44;9.30;99.90
51579;DHT22;47998;53.242;6.386;2022-10-31T03:32:18;9.30;99.90
51579;DHT22;47998;53.242;6.386;2022-10-31T03:34:46;9.40;99.90
51579;DHT22;47998;53.242;6.386;2022-10-31T03:37:17;9.30;99.90
51579;DHT22;47998;53.242;6.386;2022-10-31T03:39:47;9.30;99.90
51579;DHT22;47998;53.242;6.386;2022-10-31T03:42:17;9.30;99.90
51579;DHT22;47998;53.242;6.386;2022-10-31T03:44:46;9.20;99.90
51579;DHT22;47998;53.242;6.386;2022-10-31T03:47:14;9.10;99.90
51579;DHT22;47998;53.242;6.386;2022-10-31T03:49:40;9.10;99.90
51579;DHT22;47998;53.242;6.386;2022-10-31T03:52:26;9.10;99.90
51579;DHT22;47998;53.242;6.386;2022-10-31T03:55:04;9.00;99.90
51579;DHT22;47998;53.242;6.386;2022-10-31T04:00:20;8.90;99.90
51579;DHT22;47998;53.242;6.386;2022-10-31T04:05:21;8.80;99.90
51579;DHT22;47998;53.242;6.386;2022-10-31T04:07:51;8.90;99.90
51579;DHT22;47998;53.242;6.386;2022-10-31T04:10:18;8.80;99.90
51579;DHT22;47998;53.242;6.386;2022-10-31T04:12:49;8.80;99.90
51579;DHT22;47998;53.242;6.386;2022-10-31T04:15:17;8.80;99.90
51579;DHT22;47998;53.242;6.386;2022-10-31T04:17:45;8.80;99.90
51579;DHT22;47998;53.242;6.386;2022-10-31T04:20:16;8.80;99.90
51579;DHT22;47998;53.242;6.386;2022-10-31T04:22:42;8.80;99.90
51579;DHT22;47998;53.242;6.386;2022-10-31T04:25:08;8.70;99.90
51579;DHT22;47998;53.242;6.386;2022-10-31T04:27:34;8.80;99.90
51579;DHT22;47998;53.242;6.386;2022-10-31T04:29:59;8.70;99.90
51579;DHT22;47998;53.242;6.386;2022-10-31T04:32:25;8.70;99.90
51579;DHT22;47998;53.242;6.386;2022-10-31T04:34:51;8.70;99.90
51579;DHT22;47998;53.242;6.386;2022-10-31T04:37:17;8.80;99.90
51579;DHT22;47998;53.242;6.386;2022-10-31T04:39:42;8.80;99.90
51579;DHT22;47998;53.242;6.386;2022-10-31T04:42:08;8.80;99.90
51579;DHT22;47998;53.242;6.386;2022-10-31T04:44:34;8.80;99.90
51579;DHT22;47998;53.242;6.386;2022-10-31T04:46:59;8.80;99.90
51579;DHT22;47998;53.242;6.386;2022-10-31T04:49:25;8.70;99.90
51579;DHT22;47998;53.242;6.386;2022-10-31T04:51:51;8.80;99.90
51579;DHT22;47998;53.242;6.386;2022-10-31T04:54:16;8.80;99.90
51579;DHT22;47998;53.242;6.386;2022-10-31T04:56:42;8.70;99.90
51579;DHT22;47998;53.242;6.386;2022-10-31T04:59:08;8.70;99.90
51579;DHT22;47998;53.242;6.386;2022-10-31T05:01:33;8.70;99.90
51579;DHT22;47998;53.242;6.386;2022-10-31T05:03:59;8.70;99.90
51579;DHT22;47998;53.242;6.386;2022-10-31T05:06:25;8.70;99.90
51579;DHT22;47998;53.242;6.386;2022-10-31T05:08:50;8.60;99.90
51579;DHT22;47998;53.242;6.386;2022-10-31T05:11:16;8.50;99.90
51579;DHT22;47998;53.242;6.386;2022-10-31T05:13:42;8.50;99.90
51579;DHT22;47998;53.242;6.386;2022-10-31T05:16:07;8.40;99.90
51579;DHT22;47998;53.242;6.386;2022-10-31T05:18:33;8.40;99.90
51579;DHT22;47998;53.242;6.386;2022-10-31T05:20:59;8.40;99.90
51579;DHT22;47998;53.242;6.386;2022-10-31T05:23:24;8.50;99.90
51579;DHT22;47998;53.242;6.386;2022-10-31T05:25:50;8.60;99.90
51579;DHT22;47998;53.242;6.386;2022-10-31T05:28:16;8.50;99.90
51579;DHT22;47998;53.242;6.386;2022-10-31T05:30:41;8.50;99.90
51579;DHT22;47998;53.242;6.386;2022-10-31T05:33:07;8.50;99.90
51579;DHT22;47998;53.242;6.386;2022-10-31T05:35:33;8.60;99.90
51579;DHT22;47998;53.242;6.386;2022-10-31T05:37:59;8.60;99.90
51579;DHT22;47998;53.242;6.386;2022-10-31T05:40:26;8.60;99.90
51579;DHT22;47998;53.242;6.386;2022-10-31T05:42:53;8.50;99.90
51579;DHT22;47998;53.242;6.386;2022-10-31T05:45:20;8.40;99.90
51579;DHT22;47998;53.242;6.386;2022-10-31T05:47:54;8.40;99.90
51579;DHT22;47998;53.242;6.386;2022-10-31T05:50:20;8.40;99.90
51579;DHT22;47998;53.242;6.386;2022-10-31T05:52:46;8.40;99.90
51579;DHT22;47998;53.242;6.386;2022-10-31T05:55:12;8.40;99.90
51579;DHT22;47998;53.242;6.386;2022-10-31T05:57:38;8.50;99.90
51579;DHT22;47998;53.242;6.386;2022-10-31T06:00:05;8.40;99.90
51579;DHT22;47998;53.242;6.386;2022-10-31T06:02:30;8.40;99.90
51579;DHT22;47998;53.242;6.386;2022-10-31T06:05:00;8.30;99.90
51579;DHT22;47998;53.242;6.386;2022-10-31T06:07:26;8.30;99.90
51579;DHT22;47998;53.242;6.386;2022-10-31T06:09:52;8.20;99.90
51579;DHT22;47998;53.242;6.386;2022-10-31T06:12:18;8.20;99.90
51579;DHT22;47998;53.242;6.386;2022-10-31T06:14:43;8.30;99.90
51579;DHT22;47998;53.242;6.386;2022-10-31T06:17:09;8.20;99.90
51579;DHT22;47998;53.242;6.386;2022-10-31T06:19:35;8.20;99.90
51579;DHT22;47998;53.242;6.386;2022-10-31T06:22:00;8.30;99.90
51579;DHT22;47998;53.242;6.386;2022-10-31T06:24:26;8.20;99.90
51579;DHT22;47998;53.242;6.386;2022-10-31T06:26:52;8.20;99.90
51579;DHT22;47998;53.242;6.386;2022-10-31T06:29:17;8.10;99.90
51579;DHT22;47998;53.242;6.386;2022-10-31T06:31:43;8.20;99.90
51579;DHT22;47998;53.242;6.386;2022-10-31T06:34:09;8.30;99.90
51579;DHT22;47998;53.242;6.386;2022-10-31T06:36:35;8.30;99.90
51579;DHT22;47998;53.242;6.386;2022-10-31T06:39:00;8.30;99.90
51579;DHT22;47998;53.242;6.386;2022-10-31T06:41:26;8.40;99.90
51579;DHT22;47998;53.242;6.386;2022-10-31T06:43:52;8.40;99.90
51579;DHT22;47998;53.242;6.386;2022-10-31T06:46:17;8.30;99.90
51579;DHT22;47998;53.242;6.386;2022-10-31T06:48:43;8.40;99.90
51579;DHT22;47998;53.242;6.386;2022-10-31T06:51:09;8.40;99.90
51579;DHT22;47998;53.242;6.386;2022-10-31T06:53:35;8.40;99.90
51579;DHT22;47998;53.242;6.386;2022-10-31T06:56:00;8.50;99.90
51579;DHT22;47998;53.242;6.386;2022-10-31T06:58:26;8.50;99.90
51579;DHT22;47998;53.242;6.386;2022-10-31T07:00:52;8.60;99.90
51579;DHT22;47998;53.242;6.386;2022-10-31T07:03:17;8.50;99.90
51579;DHT22;47998;53.242;6.386;2022-10-31T07:05:43;8.60;99.90
51579;DHT22;47998;53.242;6.386;2022-10-31T07:08:12;8.60;99.90
51579;DHT22;47998;53.242;6.386;2022-10-31T07:10:39;8.50;99.90
51579;DHT22;47998;53.242;6.386;2022-10-31T07:13:08;8.60;99.90
51579;DHT22;47998;53.242;6.386;2022-10-31T07:15:36;8.50;99.90
51579;DHT22;47998;53.242;6.386;2022-10-31T07:18:03;8.60;99.90
51579;DHT22;47998;53.242;6.386;2022-10-31T07:20:30;8.50;99.90
51579;DHT22;47998;53.242;6.386;2022-10-31T07:22:56;8.70;99.90
51579;DHT22;47998;53.242;6.386;2022-10-31T07:25:23;8.70;99.90
51579;DHT22;47998;53.242;6.386;2022-10-31T07:27:49;8.70;99.90
51579;DHT22;47998;53.242;6.386;2022-10-31T07:30:15;8.70;99.90
51579;DHT22;47998;53.242;6.386;2022-10-31T07:32:47;8.80;99.90
51579;DHT22;47998;53.242;6.386;2022-10-31T07:35:19;8.80;99.90
51579;DHT22;47998;53.242;6.386;2022-10-31T07:37:45;8.90;99.90
51579;DHT22;47998;53.242;6.386;2022-10-31T07:40:11;9.00;99.90
51579;DHT22;47998;53.242;6.386;2022-10-31T07:42:42;9.00;99.90
51579;DHT22;47998;53.242;6.386;2022-10-31T07:45:14;9.10;99.90
51579;DHT22;47998;53.242;6.386;2022-10-31T07:47:45;9.20;99.90
51579;DHT22;47998;53.242;6.386;2022-10-31T07:50:16;9.20;99.90
51579;DHT22;47998;53.242;6.386;2022-10-31T07:52:42;9.20;99.90
51579;DHT22;47998;53.242;6.386;2022-10-31T07:55:08;9.20;99.90
51579;DHT22;47998;53.242;6.386;2022-10-31T07:57:34;9.30;99.90
51579;DHT22;47998;53.242;6.386;2022-10-31T08:00:00;9.40;99.90
51579;DHT22;47998;53.242;6.386;2022-10-31T08:02:26;9.40;99.90
51579;DHT22;47998;53.242;6.386;2022-10-31T08:04:51;9.40;99.90
51579;DHT22;47998;53.242;6.386;2022-10-31T08:07:17;9.50;99.90
51579;DHT22;47998;53.242;6.386;2022-10-31T08:09:43;9.60;99.90
51579;DHT22;47998;53.242;6.386;2022-10-31T08:12:09;9.70;99.90
51579;DHT22;47998;53.242;6.386;2022-10-31T08:14:35;9.60;99.90
51579;DHT22;47998;53.242;6.386;2022-10-31T08:17:00;9.70;99.90
51579;DHT22;47998;53.242;6.386;2022-10-31T08:19:26;9.80;99.90
51579;DHT22;47998;53.242;6.386;2022-10-31T08:21:52;9.90;99.90
51579;DHT22;47998;53.242;6.386;2022-10-31T08:24:23;9.90;99.90
51579;DHT22;47998;53.242;6.386;2022-10-31T08:26:48;10.00;99.90
51579;DHT22;47998;53.242;6.386;2022-10-31T08:29:14;10.10;99.90
51579;DHT22;47998;53.242;6.386;2022-10-31T08:31:41;10.10;99.90
51579;DHT22;47998;53.242;6.386;2022-10-31T08:34:07;10.10;99.90
51579;DHT22;47998;53.242;6.386;2022-10-31T08:36:32;10.10;99.90
51579;DHT22;47998;53.242;6.386;2022-10-31T08:38:58;10.20;99.90
51579;DHT22;47998;53.242;6.386;2022-10-31T08:41:24;10.20;99.90
51579;DHT22;47998;53.242;6.386;2022-10-31T08:43:50;10.20;99.90
51579;DHT22;47998;53.242;6.386;2022-10-31T08:46:16;10.30;99.90
51579;DHT22;47998;53.242;6.386;2022-10-31T08:48:42;10.30;99.90
51579;DHT22;47998;53.242;6.386;2022-10-31T08:51:08;10.50;99.90
51579;DHT22;47998;53.242;6.386;2022-10-31T08:53:34;10.40;99.90
51579;DHT22;47998;53.242;6.386;2022-10-31T08:56:00;10.60;99.90
51579;DHT22;47998;53.242;6.386;2022-10-31T08:58:26;10.70;99.90
51579;DHT22;47998;53.242;6.386;2022-10-31T09:00:54;10.70;99.90
51579;DHT22;47998;53.242;6.386;2022-10-31T09:03:22;10.80;99.90
51579;DHT22;47998;53.242;6.386;2022-10-31T09:05:48;10.80;99.90
51579;DHT22;47998;53.242;6.386;2022-10-31T09:08:15;10.80;99.90
51579;DHT22;47998;53.242;6.386;2022-10-31T09:10:41;10.90;99.90
51579;DHT22;47998;53.242;6.386;2022-10-31T09:13:16;10.90;99.90
51579;DHT22;47998;53.242;6.386;2022-10-31T09:15:43;11.10;99.90
51579;DHT22;47998;53.242;6.386;2022-10-31T09:18:11;11.10;99.90
51579;DHT22;47998;53.242;6.386;2022-10-31T09:20:38;11.20;99.90
51579;DHT22;47998;53.242;6.386;2022-10-31T09:23:09;11.50;99.90
51579;DHT22;47998;53.242;6.386;2022-10-31T09:25:36;11.50;99.90
51579;DHT22;47998;53.242;6.386;2022-10-31T09:28:03;11.60;99.90
51579;DHT22;47998;53.242;6.386;2022-10-31T09:30:31;11.70;99.90
51579;DHT22;47998;53.242;6.386;2022-10-31T09:33:02;11.80;99.90
51579;DHT22;47998;53.242;6.386;2022-10-31T09:35:28;12.00;99.90
51579;DHT22;47998;53.242;6.386;2022-10-31T09:38:03;12.10;99.90
51579;DHT22;47998;53.242;6.386;2022-10-31T09:40:43;12.20;99.90
51579;DHT22;47998;53.242;6.386;2022-10-31T09:49:17;12.50;99.90
51579;DHT22;47998;53.242;6.386;2022-10-31T09:51:56;12.60;99.90
51579;DHT22;47998;53.242;6.386;2022-10-31T09:57:00;12.90;99.90
51579;DHT22;47998;53.242;6.386;2022-10-31T09:59:36;13.00;99.90
51579;DHT22;47998;53.242;6.386;2022-10-31T10:02:28;13.20;99.90
51579;DHT22;47998;53.242;6.386;2022-10-31T10:05:02;13.30;99.90
51579;DHT22;47998;53.242;6.386;2022-10-31T10:10:16;13.40;99.90
51579;DHT22;47998;53.242;6.386;2022-10-31T10:20:52;14.00;99.90
51579;DHT22;47998;53.242;6.386;2022-10-31T10:26:29;14.50;99.90
51579;DHT22;47998;53.242;6.386;2022-10-31T10:29:02;14.70;99.90
51579;DHT22;47998;53.242;6.386;2022-10-31T10:31:39;14.80;99.90
51579;DHT22;47998;53.242;6.386;2022-10-31T10:34:12;14.90;99.90
51579;DHT22;47998;53.242;6.386;2022-10-31T10:36:56;14.90;99.90
51579;DHT22;47998;53.242;6.386;2022-10-31T10:40:06;15.00;99.90
51579;DHT22;47998;53.242;6.386;2022-10-31T10:42:21;15.00;99.90
51579;DHT22;47998;53.242;6.386;2022-10-31T10:45:17;15.20;99.90
51579;DHT22;47998;53.242;6.386;2022-10-31T10:48:31;15.20;99.90
51579;DHT22;47998;53.242;6.386;2022-10-31T10:51:00;15.30;99.90
51579;DHT22;47998;53.242;6.386;2022-10-31T10:56:47;15.50;99.90
51579;DHT22;47998;53.242;6.386;2022-10-31T10:59:20;15.60;99.90
51579;DHT22;47998;53.242;6.386;2022-10-31T11:01:48;15.60;99.90
51579;DHT22;47998;53.242;6.386;2022-10-31T11:04:29;15.60;99.90
51579;DHT22;47998;53.242;6.386;2022-10-31T11:07:07;15.60;99.90
51579;DHT22;47998;53.242;6.386;2022-10-31T11:09:34;15.60;99.90
51579;DHT22;47998;53.242;6.386;2022-10-31T11:12:09;15.60;99.90
51579;DHT22;47998;53.242;6.386;2022-10-31T11:14:53;15.80;99.90
51579;DHT22;47998;53.242;6.386;2022-10-31T11:17:38;15.70;99.90
51579;DHT22;47998;53.242;6.386;2022-10-31T11:22:44;15.50;99.90
51579;DHT22;47998;53.242;6.386;2022-10-31T11:28:04;15.50;99.90
51579;DHT22;47998;53.242;6.386;2022-10-31T11:30:35;15.40;99.90
51579;DHT22;47998;53.242;6.386;2022-10-31T11:33:21;15.30;99.90
51579;DHT22;47998;53.242;6.386;2022-10-31T11:35:48;15.10;99.90
51579;DHT22;47998;53.242;6.386;2022-10-31T11:38:20;15.00;99.90
51579;DHT22;47998;53.242;6.386;2022-10-31T11:40:59;14.90;99.90
51579;DHT22;47998;53.242;6.386;2022-10-31T11:43:29;14.80;99.90
51579;DHT22;47998;53.242;6.386;2022-10-31T11:45:55;14.70;99.90
51579;DHT22;47998;53.242;6.386;2022-10-31T11:48:23;14.60;99.90
51579;DHT22;47998;53.242;6.386;2022-10-31T11:50:57;14.60;99.90
51579;DHT22;47998;53.242;6.386;2022-10-31T11:53:32;14.60;99.90
51579;DHT22;47998;53.242;6.386;2022-10-31T11:56:14;14.70;99.90
51579;DHT22;47998;53.242;6.386;2022-10-31T11:58:40;14.80;99.90
51579;DHT22;47998;53.242;6.386;2022-10-31T12:01:27;14.90;99.90
51579;DHT22;47998;53.242;6.386;2022-10-31T12:04:34;14.90;99.90
51579;DHT22;47998;53.242;6.386;2022-10-31T12:07:00;15.00;99.90
51579;DHT22;47998;53.242;6.386;2022-10-31T12:09:33;15.20;99.90
51579;DHT22;47998;53.242;6.386;2022-10-31T12:20:52;15.80;99.90
51579;DHT22;47998;53.242;6.386;2022-10-31T12:40:41;16.10;99.90
51579;DHT22;47998;53.242;6.386;2022-10-31T12:43:27;16.20;99.90
51579;DHT22;47998;53.242;6.386;2022-10-31T12:45:57;16.30;99.90
51579;DHT22;47998;53.242;6.386;2022-10-31T12:59:22;16.20;99.90
51579;DHT22;47998;53.242;6.386;2022-10-31T13:05:00;16.30;99.90
51579;DHT22;47998;53.242;6.386;2022-10-31T13:12:43;16.50;99.90
51579;DHT22;47998;53.242;6.386;2022-10-31T13:17:46;16.50;99.90
51579;DHT22;47998;53.242;6.386;2022-10-31T13:20:29;16.50;99.90
51579;DHT22;47998;53.242;6.386;2022-10-31T13:23:19;16.50;99.90
51579;DHT22;47998;53.242;6.386;2022-10-31T13:25:52;16.40;99.90
51579;DHT22;47998;53.242;6.386;2022-10-31T13:28:34;16.30;99.90
51579;DHT22;47998;53.242;6.386;2022-10-31T13:31:03;16.20;99.90
51579;DHT22;47998;53.242;6.386;2022-10-31T13:33:34;16.30;99.90
51579;DHT22;47998;53.242;6.386;2022-10-31T13:36:38;16.60;99.90
51579;DHT22;47998;53.242;6.386;2022-10-31T13:41:57;17.10;99.90
51579;DHT22;47998;53.242;6.386;2022-10-31T13:44:28;17.70;99.90
51579;DHT22;47998;53.242;6.386;2022-10-31T13:46:57;18.30;99.90
51579;DHT22;47998;53.242;6.386;2022-10-31T13:54:56;18.90;99.90
51579;DHT22;47998;53.242;6.386;2022-10-31T13:57:26;19.10;1.00
51579;DHT22;47998;53.242;6.386;2022-10-31T14:00:04;19.10;1.00
51579;DHT22;47998;53.242;6.386;2022-10-31T14:02:33;19.00;99.90
51579;DHT22;47998;53.242;6.386;2022-10-31T14:07:50;18.60;99.90
51579;DHT22;47998;53.242;6.386;2022-10-31T14:12:48;17.80;63.60
51579;DHT22;47998;53.242;6.386;2022-10-31T14:15:21;17.40;99.90
51579;DHT22;47998;53.242;6.386;2022-10-31T14:20:48;16.80;99.90
51579;DHT22;47998;53.242;6.386;2022-10-31T14:31:45;16.00;1.00
51579;DHT22;47998;53.242;6.386;2022-10-31T14:53:26;15.30;99.90
51579;DHT22;47998;53.242;6.386;2022-10-31T14:55:56;15.30;99.90
51579;DHT22;47998;53.242;6.386;2022-10-31T14:58:40;15.30;99.90
51579;DHT22;47998;53.242;6.386;2022-10-31T15:01:33;15.30;99.90
51579;DHT22;47998;53.242;6.386;2022-10-31T15:04:21;15.30;99.90
51579;DHT22;47998;53.242;6.386;2022-10-31T15:06:54;15.20;99.90
51579;DHT22;47998;53.242;6.386;2022-10-31T15:09:28;15.10;99.90
51579;DHT22;47998;53.242;6.386;2022-10-31T15:11:55;15.10;99.90
51579;DHT22;47998;53.242;6.386;2022-10-31T15:14:31;15.00;99.90
51579;DHT22;47998;53.242;6.386;2022-10-31T15:16:58;14.90;99.90
51579;DHT22;47998;53.242;6.386;2022-10-31T15:19:30;14.80;99.90
51579;DHT22;47998;53.242;6.386;2022-10-31T15:21:57;14.80;99.90
51579;DHT22;47998;53.242;6.386;2022-10-31T15:24:31;14.70;99.90
51579;DHT22;47998;53.242;6.386;2022-10-31T15:27:02;14.60;99.90
51579;DHT22;47998;53.242;6.386;2022-10-31T15:29:28;14.50;99.90
51579;DHT22;47998;53.242;6.386;2022-10-31T15:31:58;14.50;99.90
51579;DHT22;47998;53.242;6.386;2022-10-31T15:36:50;14.30;99.90
51579;DHT22;47998;53.242;6.386;2022-10-31T15:39:17;14.30;99.90
51579;DHT22;47998;53.242;6.386;2022-10-31T15:42:00;14.20;99.90
51579;DHT22;47998;53.242;6.386;2022-10-31T15:44:35;14.20;99.90
51579;DHT22;47998;53.242;6.386;2022-10-31T15:47:06;14.10;99.90
51579;DHT22;47998;53.242;6.386;2022-10-31T15:49:40;14.10;99.90
51579;DHT22;47998;53.242;6.386;2022-10-31T15:52:17;14.00;99.90
51579;DHT22;47998;53.242;6.386;2022-10-31T15:54:53;14.00;99.90
51579;DHT22;47998;53.242;6.386;2022-10-31T15:57:23;14.00;99.90
51579;DHT22;47998;53.242;6.386;2022-10-31T15:59:52;13.90;99.90
51579;DHT22;47998;53.242;6.386;2022-10-31T16:02:24;13.90;99.90
51579;DHT22;47998;53.242;6.386;2022-10-31T16:05:00;13.90;99.90
51579;DHT22;47998;53.242;6.386;2022-10-31T16:07:28;13.80;99.90
51579;DHT22;47998;53.242;6.386;2022-10-31T16:09:57;13.80;99.90
51579;DHT22;47998;53.242;6.386;2022-10-31T16:12:35;13.70;99.90
51579;DHT22;47998;53.242;6.386;2022-10-31T16:15:05;13.70;99.90
51579;DHT22;47998;53.242;6.386;2022-10-31T16:17:43;13.70;99.90
51579;DHT22;47998;53.242;6.386;2022-10-31T16:20:28;13.60;99.90
51579;DHT22;47998;53.242;6.386;2022-10-31T16:22:57;13.60;99.90
51579;DHT22;47998;53.242;6.386;2022-10-31T16:25:34;13.60;99.90
51579;DHT22;47998;53.242;6.386;2022-10-31T16:28:12;13.50;99.90
51579;DHT22;47998;53.242;6.386;2022-10-31T16:30:45;13.60;99.90
51579;DHT22;47998;53.242;6.386;2022-10-31T16:33:40;13.50;99.90
51579;DHT22;47998;53.242;6.386;2022-10-31T16:38:58;13.60;99.90
51579;DHT22;47998;53.242;6.386;2022-10-31T16:41:25;13.50;99.90
51579;DHT22;47998;53.242;6.386;2022-10-31T16:43:54;13.50;99.90
51579;DHT22;47998;53.242;6.386;2022-10-31T16:46:26;13.50;99.90
51579;DHT22;47998;53.242;6.386;2022-10-31T16:48:55;13.50;99.90
51579;DHT22;47998;53.242;6.386;2022-10-31T16:51:21;13.40;99.90
51579;DHT22;47998;53.242;6.386;2022-10-31T16:53:46;13.40;99.90
51579;DHT22;47998;53.242;6.386;2022-10-31T16:56:33;13.40;99.90
51579;DHT22;47998;53.242;6.386;2022-10-31T16:59:03;13.40;99.90
51579;DHT22;47998;53.242;6.386;2022-10-31T17:01:30;13.40;99.90
51579;DHT22;47998;53.242;6.386;2022-10-31T17:03:56;13.40;99.90
51579;DHT22;47998;53.242;6.386;2022-10-31T17:06:22;13.40;99.90
51579;DHT22;47998;53.242;6.386;2022-10-31T17:08:48;13.40;99.90
51579;DHT22;47998;53.242;6.386;2022-10-31T17:11:17;13.40;99.90
51579;DHT22;47998;53.242;6.386;2022-10-31T17:13:44;13.40;99.90
51579;DHT22;47998;53.242;6.386;2022-10-31T17:16:12;13.40;99.90
51579;DHT22;47998;53.242;6.386;2022-10-31T17:18:39;13.40;99.90
51579;DHT22;47998;53.242;6.386;2022-10-31T17:21:04;13.40;99.90
51579;DHT22;47998;53.242;6.386;2022-10-31T17:23:33;13.40;99.90
51579;DHT22;47998;53.242;6.386;2022-10-31T17:25:59;13.40;99.90
51579;DHT22;47998;53.242;6.386;2022-10-31T17:28:25;13.40;99.90
51579;DHT22;47998;53.242;6.386;2022-10-31T17:30:53;13.40;99.90
51579;DHT22;47998;53.242;6.386;2022-10-31T17:33:19;13.40;99.90
51579;DHT22;47998;53.242;6.386;2022-10-31T17:35:47;13.30;99.90
51579;DHT22;47998;53.242;6.386;2022-10-31T17:38:13;13.30;99.90
51579;DHT22;47998;53.242;6.386;2022-10-31T17:40:39;13.30;99.90
51579;DHT22;47998;53.242;6.386;2022-10-31T17:43:08;13.30;99.90
51579;DHT22;47998;53.242;6.386;2022-10-31T17:45:34;13.30;99.90
51579;DHT22;47998;53.242;6.386;2022-10-31T17:48:05;13.30;99.90
51579;DHT22;47998;53.242;6.386;2022-10-31T17:50:30;13.30;99.90
51579;DHT22;47998;53.242;6.386;2022-10-31T17:52:59;13.30;99.90
51579;DHT22;47998;53.242;6.386;2022-10-31T17:55:25;13.30;99.90
51579;DHT22;47998;53.242;6.386;2022-10-31T17:57:50;13.30;99.90
51579;DHT22;47998;53.242;6.386;2022-10-31T18:00:18;13.30;99.90
51579;DHT22;47998;53.242;6.386;2022-10-31T18:02:45;13.40;99.90
51579;DHT22;47998;53.242;6.386;2022-10-31T18:05:11;13.40;99.90
51579;DHT22;47998;53.242;6.386;2022-10-31T18:07:37;13.40;99.90
51579;DHT22;47998;53.242;6.386;2022-10-31T18:10:04;13.40;99.90
51579;DHT22;47998;53.242;6.386;2022-10-31T18:12:30;13.40;99.90
51579;DHT22;47998;53.242;6.386;2022-10-31T18:14:57;13.40;99.90
51579;DHT22;47998;53.242;6.386;2022-10-31T18:17:23;13.40;99.90
51579;DHT22;47998;53.242;6.386;2022-10-31T18:19:49;13.40;99.90
51579;DHT22;47998;53.242;6.386;2022-10-31T18:22:19;13.40;99.90
51579;DHT22;47998;53.242;6.386;2022-10-31T18:24:47;13.40;99.90
51579;DHT22;47998;53.242;6.386;2022-10-31T18:27:13;13.40;99.90
51579;DHT22;47998;53.242;6.386;2022-10-31T18:29:39;13.40;99.90
51579;DHT22;47998;53.242;6.386;2022-10-31T18:32:04;13.40;99.90